createdAt,value
2023-05-14T01:52:03.791Z,14.20
2023-05-14T02:08:47.930Z,15.76
2023-05-14T02:21:59.124Z,17.34
2023-05-14T02:35:57.144Z,18.86
2023-05-14T02:38:35.958Z,18.82
2023-05-14T02:41:14.920Z,18.98
2023-05-14T02:43:53.797Z,18.95
2023-05-14T02:58:12.897Z,19.92
2023-05-14T03:00:51.828Z,20.09
2023-05-14T03:03:31.604Z,20.33
2023-05-14T03:06:11.517Z,20.38
2023-05-14T03:08:51.445Z,20.57
2023-05-14T03:11:29.858Z,20.47
2023-05-14T03:14:08.983Z,20.76
2023-05-14T03:16:49.666Z,21.06
2023-05-14T03:19:28.425Z,21.18
2023-05-14T03:22:07.082Z,21.28
2023-05-14T03:24:47.451Z,21.52
2023-05-14T03:27:26.920Z,21.73
2023-05-14T03:30:06.727Z,21.85
2023-05-14T03:32:47.593Z,22.00
2023-05-14T03:35:26.679Z,22.17
2023-05-14T03:38:05.520Z,22.22
2023-05-14T03:40:44.570Z,22.16
2023-05-14T03:43:23.540Z,22.44
2023-05-14T03:46:03.467Z,22.66
2023-05-14T03:48:42.633Z,22.73
2023-05-14T03:51:41.411Z,22.74
2023-05-14T03:54:20.361Z,22.77
2023-05-14T03:56:59.175Z,22.85
2023-05-14T04:02:37.008Z,23.33
2023-05-14T04:05:16.458Z,23.42
2023-05-14T04:07:56.460Z,23.32
2023-05-14T04:10:36.296Z,23.52
2023-05-14T04:13:16.040Z,23.44
2023-05-14T04:15:56.027Z,23.70
2023-05-14T04:18:36.180Z,23.98
2023-05-14T04:21:15.024Z,23.81
2023-05-14T04:23:57.345Z,24.04
2023-05-14T04:26:37.631Z,24.22
2023-05-14T04:29:19.343Z,24.21
2023-05-14T04:32:20.362Z,24.43
2023-05-14T04:35:00.060Z,24.30
2023-05-14T04:40:38.581Z,24.63
2023-05-14T04:43:18.349Z,24.77
2023-05-14T04:45:58.618Z,24.44
2023-05-14T04:51:35.015Z,24.87
2023-05-14T04:54:15.222Z,24.84
2023-05-14T04:56:55.955Z,25.29
2023-05-14T04:59:39.558Z,24.41
2023-05-14T05:02:18.870Z,24.94
2023-05-14T05:04:59.414Z,25.49
2023-05-14T05:10:55.552Z,25.05
2023-05-14T05:13:36.846Z,25.22
2023-05-14T05:16:35.824Z,25.21
2023-05-14T05:19:15.708Z,24.86
2023-05-14T05:21:56.451Z,25.19
2023-05-14T05:24:37.001Z,25.58
2023-05-14T05:27:16.677Z,25.68
2023-05-14T05:32:54.470Z,25.90
2023-05-14T05:35:34.123Z,25.37
2023-05-14T05:38:14.823Z,25.44
2023-05-14T05:40:54.919Z,25.84
2023-05-14T05:43:36.259Z,25.61
2023-05-14T05:46:18.523Z,26.39
2023-05-14T05:48:59.211Z,26.42
2023-05-14T05:51:40.444Z,26.10
2023-05-14T05:57:17.175Z,26.46
2023-05-14T05:59:58.220Z,27.13
2023-05-14T06:02:49.295Z,26.63
2023-05-14T06:05:28.844Z,26.49
2023-05-14T06:08:28.371Z,27.75
2023-05-14T06:14:07.170Z,26.87
2023-05-14T06:16:48.639Z,27.14
2023-05-14T06:19:30.156Z,27.23
2023-05-14T06:22:10.803Z,27.68
2023-05-14T06:25:10.048Z,27.47
2023-05-14T06:31:08.682Z,27.77
2023-05-14T06:33:50.215Z,27.96
2023-05-14T06:36:31.654Z,27.41
2023-05-14T06:39:12.273Z,28.27
2023-05-14T06:41:56.522Z,27.69
2023-05-14T06:44:39.656Z,27.18
2023-05-14T06:47:20.279Z,26.81
2023-05-14T06:50:00.192Z,26.75
2023-05-14T06:52:41.954Z,27.03
2023-05-14T06:55:21.756Z,27.61
2023-05-14T06:58:01.579Z,27.63
2023-05-14T07:00:42.032Z,27.07
2023-05-14T07:03:21.792Z,27.09
2023-05-14T07:06:02.766Z,27.50
2023-05-14T07:08:42.393Z,27.19
2023-05-14T07:11:23.406Z,27.76
2023-05-14T07:20:20.301Z,27.57
2023-05-14T07:23:02.365Z,27.27
2023-05-14T07:25:48.382Z,27.27
2023-05-14T07:34:26.952Z,23.81
2023-05-14T07:37:09.977Z,23.65
2023-05-14T07:39:50.483Z,22.85
2023-05-14T07:42:50.676Z,25.70
2023-05-14T07:45:32.152Z,23.35
2023-05-14T07:48:14.807Z,22.61
2023-05-14T07:50:58.303Z,21.95
2023-05-14T07:53:37.261Z,22.21
2023-05-14T07:56:19.742Z,23.00
2023-05-14T08:05:15.966Z,25.32
2023-05-14T08:07:56.303Z,26.54
2023-05-14T08:10:38.974Z,26.53
2023-05-14T08:13:20.194Z,27.54
2023-05-14T08:18:59.800Z,28.42
2023-05-14T08:21:41.565Z,27.81
2023-05-14T08:24:41.697Z,27.87
2023-05-14T08:27:43.010Z,28.74
2023-05-14T08:30:24.585Z,28.46
2023-05-14T08:33:06.764Z,25.55
2023-05-14T08:35:48.240Z,24.95
2023-05-14T08:38:29.938Z,24.43
2023-05-14T08:44:26.631Z,27.27
2023-05-14T08:47:30.208Z,27.92
2023-05-14T08:53:11.746Z,28.58
2023-05-14T08:55:53.279Z,28.41
2023-05-14T08:58:35.566Z,28.80
2023-05-14T09:01:16.254Z,29.36
2023-05-14T09:04:00.162Z,27.86
2023-05-14T09:06:41.484Z,27.75
2023-05-14T09:09:23.186Z,28.01
2023-05-14T09:12:06.011Z,28.14
2023-05-14T09:14:48.463Z,27.27
2023-05-14T09:21:06.070Z,27.09
2023-05-14T09:24:06.439Z,27.20
2023-05-14T09:26:49.590Z,27.47
2023-05-14T09:29:33.732Z,27.32
2023-05-14T09:32:17.297Z,26.97
2023-05-14T09:35:03.036Z,27.38
2023-05-14T09:37:49.889Z,27.80
2023-05-14T09:40:32.315Z,28.12
2023-05-14T09:43:14.215Z,26.43
2023-05-14T09:45:58.431Z,26.49
2023-05-14T09:51:58.553Z,26.22
2023-05-14T09:55:01.165Z,23.92
2023-05-14T10:00:44.244Z,25.59
2023-05-14T10:03:28.250Z,25.49
2023-05-14T10:06:14.356Z,25.65
2023-05-14T10:09:00.800Z,25.11
2023-05-14T10:11:46.070Z,25.55
2023-05-14T10:14:34.347Z,25.68
2023-05-14T10:17:41.529Z,25.93
2023-05-14T10:20:25.594Z,25.87
2023-05-14T10:29:06.503Z,25.91
2023-05-14T10:32:02.584Z,26.14
2023-05-14T10:34:54.042Z,26.23
2023-05-14T10:37:36.460Z,25.71
2023-05-14T10:40:39.992Z,25.57
2023-05-14T10:46:22.404Z,26.09
2023-05-14T10:49:07.365Z,25.91
2023-05-14T10:54:48.179Z,25.30
2023-05-14T10:57:32.739Z,25.38
2023-05-14T11:00:15.697Z,24.87
2023-05-14T11:03:18.243Z,24.89
2023-05-14T11:06:02.099Z,25.21
2023-05-14T11:08:45.242Z,24.78
2023-05-14T11:11:25.880Z,24.71
2023-05-14T11:14:08.435Z,25.04
2023-05-14T11:16:52.467Z,23.96
2023-05-14T11:19:53.323Z,22.37
2023-05-14T11:25:35.148Z,21.50
2023-05-14T11:28:17.865Z,20.98
2023-05-14T11:33:59.744Z,21.92
2023-05-14T11:36:43.258Z,23.20
2023-05-14T11:39:28.118Z,23.27
2023-05-14T11:42:24.504Z,22.45
2023-05-14T11:45:08.950Z,21.73
2023-05-14T11:47:52.182Z,21.90
2023-05-14T11:50:37.991Z,21.90
2023-05-14T11:56:41.826Z,21.07
2023-05-14T11:59:27.287Z,21.00
2023-05-14T12:02:14.017Z,20.59
2023-05-14T12:05:03.450Z,20.52
2023-05-14T12:07:44.175Z,20.42
2023-05-14T12:10:26.971Z,20.14
2023-05-14T12:13:08.978Z,19.55
2023-05-14T12:15:54.591Z,19.62
2023-05-14T12:18:38.499Z,19.56
2023-05-14T12:21:20.809Z,19.36
2023-05-14T12:24:07.956Z,19.20
2023-05-14T12:26:55.963Z,18.88
2023-05-14T12:29:37.259Z,18.74
2023-05-14T12:32:28.348Z,18.66
2023-05-14T12:35:40.722Z,18.46
2023-05-14T12:38:47.682Z,17.96
2023-05-14T12:41:28.982Z,17.82
2023-05-14T12:44:28.671Z,17.69
2023-05-14T12:47:08.727Z,17.46
2023-05-14T12:49:49.663Z,17.49
2023-05-14T12:55:13.957Z,17.18
2023-05-14T12:57:54.637Z,17.07
2023-05-14T13:00:34.817Z,16.67
2023-05-14T13:03:14.656Z,16.02
2023-05-14T13:05:53.957Z,15.28
2023-05-14T13:08:35.218Z,14.28
2023-05-14T13:11:14.848Z,13.32
2023-05-14T13:13:54.300Z,12.96
2023-05-14T13:19:52.207Z,12.98
2023-05-14T13:22:33.196Z,13.06
2023-05-14T13:25:14.223Z,13.16
2023-05-14T13:27:56.809Z,13.38
2023-05-14T13:30:39.432Z,13.45
2023-05-14T13:33:19.347Z,13.11
2023-05-14T13:35:59.364Z,13.05
2023-05-14T13:38:40.638Z,12.91
2023-05-14T13:41:20.932Z,13.20
2023-05-14T13:44:00.953Z,13.11
2023-05-14T13:46:40.225Z,13.26
2023-05-14T13:49:15.471Z,13.24
2023-05-14T13:51:45.552Z,13.36
2023-05-14T13:54:15.277Z,12.88
2023-05-14T13:56:44.935Z,13.24
2023-05-14T13:59:15.009Z,13.35
2023-05-14T14:01:44.720Z,13.30
2023-05-14T14:04:17.284Z,13.27
2023-05-14T14:06:47.139Z,13.27
2023-05-14T14:09:16.798Z,13.22
2023-05-14T14:11:46.568Z,13.04
2023-05-14T14:14:16.402Z,12.61
2023-05-14T14:16:46.540Z,12.72
2023-05-14T14:19:18.274Z,11.93
